sensor_id;sensor_type;location;lat;lon;timestamp;P1;durP1;ratioP1;P2;durP2;ratioP2
30299;SDS011;17110;52.602;12.998;2023-03-14T00:01:16;2.42;;;1.80;;
30299;SDS011;17110;52.602;12.998;2023-03-14T00:03:43;3.20;;;1.90;;
30299;SDS011;17110;52.602;12.998;2023-03-14T00:06:09;2.13;;;1.92;;
30299;SDS011;17110;52.602;12.998;2023-03-14T00:08:36;3.05;;;1.90;;
30299;SDS011;17110;52.602;12.998;2023-03-14T00:11:06;1.70;;;1.55;;
30299;SDS011;17110;52.602;12.998;2023-03-14T00:13:33;1.87;;;1.70;;
30299;SDS011;17110;52.602;12.998;2023-03-14T00:16:06;2.58;;;1.60;;
30299;SDS011;17110;52.602;12.998;2023-03-14T00:18:36;1.50;;;1.40;;
30299;SDS011;17110;52.602;12.998;2023-03-14T00:21:02;2.35;;;1.52;;
30299;SDS011;17110;52.602;12.998;2023-03-14T00:23:29;1.70;;;1.38;;
30299;SDS011;17110;52.602;12.998;2023-03-14T00:26:00;2.85;;;1.80;;
30299;SDS011;17110;52.602;12.998;2023-03-14T00:28:30;3.10;;;1.50;;
30299;SDS011;17110;52.602;12.998;2023-03-14T00:30:56;3.63;;;1.75;;
30299;SDS011;17110;52.602;12.998;2023-03-14T00:33:22;2.08;;;1.70;;
30299;SDS011;17110;52.602;12.998;2023-03-14T00:35:55;2.15;;;1.50;;
30299;SDS011;17110;52.602;12.998;2023-03-14T00:38:26;1.90;;;1.43;;
30299;SDS011;17110;52.602;12.998;2023-03-14T00:40:52;2.58;;;1.48;;
30299;SDS011;17110;52.602;12.998;2023-03-14T00:43:19;3.17;;;1.50;;
30299;SDS011;17110;52.602;12.998;2023-03-14T00:45:48;4.85;;;1.85;;
30299;SDS011;17110;52.602;12.998;2023-03-14T00:48:15;3.90;;;2.17;;
30299;SDS011;17110;52.602;12.998;2023-03-14T00:50:42;2.00;;;1.55;;
30299;SDS011;17110;52.602;12.998;2023-03-14T00:53:07;1.58;;;1.33;;
30299;SDS011;17110;52.602;12.998;2023-03-14T00:55:40;1.60;;;1.50;;
30299;SDS011;17110;52.602;12.998;2023-03-14T00:58:08;2.83;;;1.50;;
30299;SDS011;17110;52.602;12.998;2023-03-14T01:00:38;2.40;;;1.50;;
30299;SDS011;17110;52.602;12.998;2023-03-14T01:03:04;2.42;;;1.55;;
30299;SDS011;17110;52.602;12.998;2023-03-14T01:05:30;1.95;;;1.60;;
30299;SDS011;17110;52.602;12.998;2023-03-14T01:08:04;3.43;;;1.77;;
30299;SDS011;17110;52.602;12.998;2023-03-14T01:10:52;2.38;;;1.60;;
30299;SDS011;17110;52.602;12.998;2023-03-14T01:13:18;1.85;;;1.60;;
30299;SDS011;17110;52.602;12.998;2023-03-14T01:15:44;3.10;;;1.75;;
30299;SDS011;17110;52.602;12.998;2023-03-14T01:18:09;3.43;;;1.67;;
30299;SDS011;17110;52.602;12.998;2023-03-14T01:20:36;2.17;;;1.60;;
30299;SDS011;17110;52.602;12.998;2023-03-14T01:23:02;2.30;;;1.60;;
30299;SDS011;17110;52.602;12.998;2023-03-14T01:25:40;5.40;;;1.50;;
30299;SDS011;17110;52.602;12.998;2023-03-14T01:28:06;1.60;;;1.50;;
30299;SDS011;17110;52.602;12.998;2023-03-14T01:30:32;2.83;;;1.53;;
30299;SDS011;17110;52.602;12.998;2023-03-14T01:32:58;1.60;;;1.50;;
30299;SDS011;17110;52.602;12.998;2023-03-14T01:35:24;2.75;;;1.25;;
30299;SDS011;17110;52.602;12.998;2023-03-14T01:37:52;1.50;;;1.40;;
30299;SDS011;17110;52.602;12.998;2023-03-14T01:40:18;2.25;;;1.90;;
30299;SDS011;17110;52.602;12.998;2023-03-14T01:42:45;2.75;;;1.80;;
30299;SDS011;17110;52.602;12.998;2023-03-14T01:48:17;1.85;;;1.40;;
30299;SDS011;17110;52.602;12.998;2023-03-14T01:50:42;2.05;;;1.30;;
30299;SDS011;17110;52.602;12.998;2023-03-14T01:53:08;1.88;;;1.58;;
30299;SDS011;17110;52.602;12.998;2023-03-14T01:55:34;2.20;;;1.60;;
30299;SDS011;17110;52.602;12.998;2023-03-14T01:58:03;3.53;;;1.60;;
30299;SDS011;17110;52.602;12.998;2023-03-14T02:00:30;3.05;;;1.60;;
30299;SDS011;17110;52.602;12.998;2023-03-14T02:03:00;1.85;;;1.50;;
30299;SDS011;17110;52.602;12.998;2023-03-14T02:05:34;2.72;;;1.60;;
30299;SDS011;17110;52.602;12.998;2023-03-14T02:08:03;2.13;;;1.45;;
30299;SDS011;17110;52.602;12.998;2023-03-14T02:10:39;1.60;;;1.50;;
30299;SDS011;17110;52.602;12.998;2023-03-14T02:13:11;2.72;;;1.60;;
30299;SDS011;17110;52.602;12.998;2023-03-14T02:15:39;3.17;;;1.70;;
30299;SDS011;17110;52.602;12.998;2023-03-14T02:18:05;2.00;;;1.45;;
30299;SDS011;17110;52.602;12.998;2023-03-14T02:24:07;2.55;;;1.60;;
30299;SDS011;17110;52.602;12.998;2023-03-14T02:26:07;1.73;;;1.42;;
30299;SDS011;17110;52.602;12.998;2023-03-14T02:28:40;1.95;;;1.50;;
30299;SDS011;17110;52.602;12.998;2023-03-14T02:31:06;2.50;;;1.33;;
30299;SDS011;17110;52.602;12.998;2023-03-14T02:33:35;1.85;;;1.20;;
30299;SDS011;17110;52.602;12.998;2023-03-14T02:36:07;2.25;;;1.30;;
30299;SDS011;17110;52.602;12.998;2023-03-14T02:41:36;2.22;;;1.23;;
30299;SDS011;17110;52.602;12.998;2023-03-14T02:44:04;1.52;;;1.33;;
30299;SDS011;17110;52.602;12.998;2023-03-14T02:46:30;1.85;;;1.35;;
30299;SDS011;17110;52.602;12.998;2023-03-14T02:48:57;1.80;;;1.38;;
30299;SDS011;17110;52.602;12.998;2023-03-14T02:51:37;2.80;;;1.48;;
30299;SDS011;17110;52.602;12.998;2023-03-14T02:54:05;2.08;;;1.60;;
30299;SDS011;17110;52.602;12.998;2023-03-14T02:56:33;2.42;;;1.58;;
30299;SDS011;17110;52.602;12.998;2023-03-14T02:59:03;2.00;;;1.40;;
30299;SDS011;17110;52.602;12.998;2023-03-14T03:01:29;2.90;;;1.50;;
30299;SDS011;17110;52.602;12.998;2023-03-14T03:03:55;2.00;;;1.60;;
30299;SDS011;17110;52.602;12.998;2023-03-14T03:06:20;1.37;;;1.27;;
30299;SDS011;17110;52.602;12.998;2023-03-14T03:08:46;1.83;;;1.35;;
30299;SDS011;17110;52.602;12.998;2023-03-14T03:11:12;2.28;;;1.38;;
30299;SDS011;17110;52.602;12.998;2023-03-14T03:13:38;1.35;;;1.20;;
30299;SDS011;17110;52.602;12.998;2023-03-14T03:16:04;1.52;;;1.30;;
30299;SDS011;17110;52.602;12.998;2023-03-14T03:18:30;1.52;;;1.30;;
30299;SDS011;17110;52.602;12.998;2023-03-14T03:21:01;2.00;;;1.25;;
30299;SDS011;17110;52.602;12.998;2023-03-14T03:23:28;2.05;;;1.23;;
30299;SDS011;17110;52.602;12.998;2023-03-14T03:25:56;1.40;;;1.30;;
30299;SDS011;17110;52.602;12.998;2023-03-14T03:28:22;2.20;;;1.20;;
30299;SDS011;17110;52.602;12.998;2023-03-14T03:30:48;1.73;;;1.30;;
30299;SDS011;17110;52.602;12.998;2023-03-14T03:33:14;2.08;;;1.35;;
30299;SDS011;17110;52.602;12.998;2023-03-14T03:35:44;3.15;;;2.10;;
30299;SDS011;17110;52.602;12.998;2023-03-14T03:38:12;1.92;;;1.60;;
30299;SDS011;17110;52.602;12.998;2023-03-14T03:40:38;3.03;;;1.50;;
30299;SDS011;17110;52.602;12.998;2023-03-14T03:43:06;2.88;;;1.73;;
30299;SDS011;17110;52.602;12.998;2023-03-14T03:45:32;2.22;;;1.73;;
30299;SDS011;17110;52.602;12.998;2023-03-14T03:48:00;3.35;;;2.00;;
30299;SDS011;17110;52.602;12.998;2023-03-14T03:50:29;2.22;;;1.70;;
30299;SDS011;17110;52.602;12.998;2023-03-14T03:52:55;1.80;;;1.52;;
30299;SDS011;17110;52.602;12.998;2023-03-14T03:55:20;3.30;;;1.53;;
30299;SDS011;17110;52.602;12.998;2023-03-14T03:57:46;1.30;;;1.20;;
30299;SDS011;17110;52.602;12.998;2023-03-14T04:00:12;2.88;;;1.30;;
30299;SDS011;17110;52.602;12.998;2023-03-14T04:02:38;2.05;;;1.23;;
30299;SDS011;17110;52.602;12.998;2023-03-14T04:05:04;2.55;;;1.25;;
30299;SDS011;17110;52.602;12.998;2023-03-14T04:07:33;3.17;;;1.27;;
30299;SDS011;17110;52.602;12.998;2023-03-14T04:09:59;2.00;;;1.05;;
30299;SDS011;17110;52.602;12.998;2023-03-14T04:12:26;2.25;;;1.20;;
30299;SDS011;17110;52.602;12.998;2023-03-14T04:14:54;2.67;;;1.40;;
30299;SDS011;17110;52.602;12.998;2023-03-14T04:17:22;2.08;;;1.30;;
30299;SDS011;17110;52.602;12.998;2023-03-14T04:19:48;2.13;;;1.20;;
30299;SDS011;17110;52.602;12.998;2023-03-14T04:22:16;1.83;;;1.20;;
30299;SDS011;17110;52.602;12.998;2023-03-14T04:24:42;2.60;;;1.38;;
30299;SDS011;17110;52.602;12.998;2023-03-14T04:27:08;2.60;;;1.27;;
30299;SDS011;17110;52.602;12.998;2023-03-14T04:29:33;1.27;;;1.17;;
30299;SDS011;17110;52.602;12.998;2023-03-14T04:31:59;1.90;;;1.30;;
30299;SDS011;17110;52.602;12.998;2023-03-14T04:34:25;2.17;;;1.00;;
30299;SDS011;17110;52.602;12.998;2023-03-14T04:36:51;1.30;;;0.93;;
30299;SDS011;17110;52.602;12.998;2023-03-14T04:39:16;2.57;;;1.20;;
30299;SDS011;17110;52.602;12.998;2023-03-14T04:41:43;3.20;;;1.20;;
30299;SDS011;17110;52.602;12.998;2023-03-14T04:44:09;2.45;;;1.35;;
30299;SDS011;17110;52.602;12.998;2023-03-14T04:46:35;1.42;;;1.20;;
30299;SDS011;17110;52.602;12.998;2023-03-14T04:49:01;1.70;;;1.23;;
30299;SDS011;17110;52.602;12.998;2023-03-14T04:51:26;2.00;;;1.20;;
30299;SDS011;17110;52.602;12.998;2023-03-14T04:53:52;2.13;;;1.17;;
30299;SDS011;17110;52.602;12.998;2023-03-14T04:56:19;2.33;;;1.48;;
30299;SDS011;17110;52.602;12.998;2023-03-14T04:58:45;2.30;;;1.20;;
30299;SDS011;17110;52.602;12.998;2023-03-14T05:01:11;2.90;;;1.40;;
30299;SDS011;17110;52.602;12.998;2023-03-14T05:03:37;1.67;;;1.20;;
30299;SDS011;17110;52.602;12.998;2023-03-14T05:06:03;2.00;;;1.17;;
30299;SDS011;17110;52.602;12.998;2023-03-14T05:08:29;1.90;;;1.30;;
30299;SDS011;17110;52.602;12.998;2023-03-14T05:10:56;2.63;;;1.20;;
30299;SDS011;17110;52.602;12.998;2023-03-14T05:13:26;1.60;;;1.20;;
30299;SDS011;17110;52.602;12.998;2023-03-14T05:15:52;1.90;;;1.20;;
30299;SDS011;17110;52.602;12.998;2023-03-14T05:18:20;2.05;;;1.27;;
30299;SDS011;17110;52.602;12.998;2023-03-14T05:20:46;2.30;;;1.25;;
30299;SDS011;17110;52.602;12.998;2023-03-14T05:23:11;1.40;;;1.30;;
30299;SDS011;17110;52.602;12.998;2023-03-14T05:25:37;1.85;;;1.33;;
30299;SDS011;17110;52.602;12.998;2023-03-14T05:28:03;3.00;;;1.45;;
30299;SDS011;17110;52.602;12.998;2023-03-14T05:30:29;2.77;;;1.33;;
30299;SDS011;17110;52.602;12.998;2023-03-14T05:32:55;2.58;;;1.20;;
30299;SDS011;17110;52.602;12.998;2023-03-14T05:35:21;1.73;;;1.02;;
30299;SDS011;17110;52.602;12.998;2023-03-14T05:37:47;1.80;;;1.23;;
30299;SDS011;17110;52.602;12.998;2023-03-14T05:40:13;2.25;;;1.27;;
30299;SDS011;17110;52.602;12.998;2023-03-14T05:42:39;2.90;;;1.20;;
30299;SDS011;17110;52.602;12.998;2023-03-14T05:45:05;1.97;;;1.20;;
30299;SDS011;17110;52.602;12.998;2023-03-14T05:47:31;2.35;;;1.10;;
30299;SDS011;17110;52.602;12.998;2023-03-14T05:50:02;1.57;;;1.20;;
30299;SDS011;17110;52.602;12.998;2023-03-14T05:52:28;2.15;;;1.52;;
30299;SDS011;17110;52.602;12.998;2023-03-14T05:54:54;1.20;;;1.05;;
30299;SDS011;17110;52.602;12.998;2023-03-14T05:57:20;1.70;;;1.20;;
30299;SDS011;17110;52.602;12.998;2023-03-14T05:59:45;3.00;;;1.50;;
30299;SDS011;17110;52.602;12.998;2023-03-14T06:02:14;2.13;;;1.20;;
30299;SDS011;17110;52.602;12.998;2023-03-14T06:04:39;3.27;;;1.40;;
30299;SDS011;17110;52.602;12.998;2023-03-14T06:07:05;1.50;;;1.30;;
30299;SDS011;17110;52.602;12.998;2023-03-14T06:09:34;2.38;;;1.40;;
30299;SDS011;17110;52.602;12.998;2023-03-14T06:11:59;1.70;;;1.20;;
30299;SDS011;17110;52.602;12.998;2023-03-14T06:14:25;3.80;;;1.30;;
30299;SDS011;17110;52.602;12.998;2023-03-14T06:16:51;2.15;;;1.23;;
30299;SDS011;17110;52.602;12.998;2023-03-14T06:19:18;3.25;;;1.35;;
30299;SDS011;17110;52.602;12.998;2023-03-14T06:21:43;3.00;;;1.30;;
30299;SDS011;17110;52.602;12.998;2023-03-14T06:24:10;1.63;;;1.00;;
30299;SDS011;17110;52.602;12.998;2023-03-14T06:26:36;4.70;;;1.38;;
30299;SDS011;17110;52.602;12.998;2023-03-14T06:29:01;2.17;;;1.40;;
30299;SDS011;17110;52.602;12.998;2023-03-14T06:31:31;3.63;;;1.50;;
30299;SDS011;17110;52.602;12.998;2023-03-14T06:33:58;4.35;;;1.67;;
30299;SDS011;17110;52.602;12.998;2023-03-14T06:36:24;3.70;;;1.30;;
30299;SDS011;17110;52.602;12.998;2023-03-14T06:38:50;4.97;;;1.83;;
30299;SDS011;17110;52.602;12.998;2023-03-14T06:41:16;3.97;;;1.90;;
30299;SDS011;17110;52.602;12.998;2023-03-14T06:43:42;2.73;;;1.37;;
30299;SDS011;17110;52.602;12.998;2023-03-14T06:46:08;4.57;;;1.70;;
30299;SDS011;17110;52.602;12.998;2023-03-14T06:48:33;3.58;;;1.40;;
30299;SDS011;17110;52.602;12.998;2023-03-14T06:50:59;5.00;;;1.70;;
30299;SDS011;17110;52.602;12.998;2023-03-14T06:53:25;3.90;;;1.70;;
30299;SDS011;17110;52.602;12.998;2023-03-14T06:55:51;3.33;;;1.60;;
30299;SDS011;17110;52.602;12.998;2023-03-14T06:58:16;3.83;;;1.95;;
30299;SDS011;17110;52.602;12.998;2023-03-14T07:00:42;2.25;;;1.40;;
30299;SDS011;17110;52.602;12.998;2023-03-14T07:03:08;4.23;;;1.70;;
30299;SDS011;17110;52.602;12.998;2023-03-14T07:05:35;2.85;;;1.50;;
30299;SDS011;17110;52.602;12.998;2023-03-14T07:08:01;4.43;;;1.58;;
30299;SDS011;17110;52.602;12.998;2023-03-14T07:10:27;5.72;;;1.88;;
30299;SDS011;17110;52.602;12.998;2023-03-14T07:12:52;5.18;;;1.70;;
30299;SDS011;17110;52.602;12.998;2023-03-14T07:15:19;4.40;;;1.55;;
30299;SDS011;17110;52.602;12.998;2023-03-14T07:17:45;3.95;;;1.40;;
30299;SDS011;17110;52.602;12.998;2023-03-14T07:20:13;3.40;;;1.40;;
30299;SDS011;17110;52.602;12.998;2023-03-14T07:22:38;3.53;;;1.60;;
30299;SDS011;17110;52.602;12.998;2023-03-14T07:25:04;4.32;;;1.80;;
30299;SDS011;17110;52.602;12.998;2023-03-14T07:27:31;3.25;;;1.60;;
30299;SDS011;17110;52.602;12.998;2023-03-14T07:29:56;4.40;;;1.77;;
30299;SDS011;17110;52.602;12.998;2023-03-14T07:32:22;4.23;;;1.67;;
30299;SDS011;17110;52.602;12.998;2023-03-14T07:34:48;3.47;;;1.80;;
30299;SDS011;17110;52.602;12.998;2023-03-14T07:37:14;4.25;;;1.55;;
30299;SDS011;17110;52.602;12.998;2023-03-14T07:39:40;5.85;;;1.90;;
30299;SDS011;17110;52.602;12.998;2023-03-14T07:42:05;4.17;;;1.90;;
30299;SDS011;17110;52.602;12.998;2023-03-14T07:44:32;3.03;;;1.70;;
30299;SDS011;17110;52.602;12.998;2023-03-14T07:46:57;4.27;;;1.83;;
30299;SDS011;17110;52.602;12.998;2023-03-14T07:49:23;6.63;;;1.83;;
30299;SDS011;17110;52.602;12.998;2023-03-14T07:51:49;4.57;;;1.70;;
30299;SDS011;17110;52.602;12.998;2023-03-14T07:54:15;6.47;;;1.80;;
30299;SDS011;17110;52.602;12.998;2023-03-14T07:56:41;3.80;;;1.70;;
30299;SDS011;17110;52.602;12.998;2023-03-14T07:59:07;4.73;;;1.70;;
30299;SDS011;17110;52.602;12.998;2023-03-14T08:01:34;4.45;;;1.80;;
30299;SDS011;17110;52.602;12.998;2023-03-14T08:03:59;6.50;;;1.92;;
30299;SDS011;17110;52.602;12.998;2023-03-14T08:06:26;5.10;;;1.92;;
30299;SDS011;17110;52.602;12.998;2023-03-14T08:08:52;4.30;;;1.85;;
30299;SDS011;17110;52.602;12.998;2023-03-14T08:11:18;3.75;;;1.75;;
30299;SDS011;17110;52.602;12.998;2023-03-14T08:13:44;4.87;;;1.80;;
30299;SDS011;17110;52.602;12.998;2023-03-14T08:16:15;6.10;;;1.75;;
30299;SDS011;17110;52.602;12.998;2023-03-14T08:18:47;4.18;;;1.75;;
30299;SDS011;17110;52.602;12.998;2023-03-14T08:21:13;3.78;;;1.90;;
30299;SDS011;17110;52.602;12.998;2023-03-14T08:23:41;5.40;;;1.90;;
30299;SDS011;17110;52.602;12.998;2023-03-14T08:26:08;5.33;;;1.90;;
30299;SDS011;17110;52.602;12.998;2023-03-14T08:28:34;3.63;;;1.60;;
30299;SDS011;17110;52.602;12.998;2023-03-14T08:31:00;5.88;;;1.95;;
30299;SDS011;17110;52.602;12.998;2023-03-14T08:33:27;4.97;;;2.03;;
30299;SDS011;17110;52.602;12.998;2023-03-14T08:35:54;6.03;;;1.65;;
30299;SDS011;17110;52.602;12.998;2023-03-14T08:38:21;4.38;;;1.55;;
30299;SDS011;17110;52.602;12.998;2023-03-14T08:40:47;4.13;;;1.50;;
30299;SDS011;17110;52.602;12.998;2023-03-14T08:43:14;5.90;;;1.85;;
30299;SDS011;17110;52.602;12.998;2023-03-14T08:45:40;4.50;;;1.80;;
30299;SDS011;17110;52.602;12.998;2023-03-14T08:48:05;6.13;;;2.00;;
30299;SDS011;17110;52.602;12.998;2023-03-14T08:50:31;5.47;;;1.70;;
30299;SDS011;17110;52.602;12.998;2023-03-14T08:52:57;3.15;;;1.63;;
30299;SDS011;17110;52.602;12.998;2023-03-14T08:55:26;4.53;;;1.87;;
30299;SDS011;17110;52.602;12.998;2023-03-14T08:57:55;5.97;;;1.47;;
30299;SDS011;17110;52.602;12.998;2023-03-14T09:00:21;6.47;;;2.30;;
30299;SDS011;17110;52.602;12.998;2023-03-14T09:02:47;5.70;;;1.73;;
30299;SDS011;17110;52.602;12.998;2023-03-14T09:05:13;4.28;;;1.50;;
30299;SDS011;17110;52.602;12.998;2023-03-14T09:07:40;3.53;;;1.50;;
30299;SDS011;17110;52.602;12.998;2023-03-14T09:10:06;3.70;;;1.47;;
30299;SDS011;17110;52.602;12.998;2023-03-14T09:12:37;2.40;;;1.23;;
30299;SDS011;17110;52.602;12.998;2023-03-14T09:15:06;2.55;;;1.30;;
30299;SDS011;17110;52.602;12.998;2023-03-14T09:17:33;4.28;;;1.40;;
30299;SDS011;17110;52.602;12.998;2023-03-14T09:19:59;3.22;;;1.58;;
30299;SDS011;17110;52.602;12.998;2023-03-14T09:22:25;3.22;;;1.50;;
30299;SDS011;17110;52.602;12.998;2023-03-14T09:24:51;3.67;;;1.50;;
30299;SDS011;17110;52.602;12.998;2023-03-14T09:27:17;4.73;;;1.47;;
30299;SDS011;17110;52.602;12.998;2023-03-14T09:29:42;4.38;;;1.45;;
30299;SDS011;17110;52.602;12.998;2023-03-14T09:32:08;3.05;;;1.30;;
30299;SDS011;17110;52.602;12.998;2023-03-14T09:37:22;3.22;;;1.33;;
30299;SDS011;17110;52.602;12.998;2023-03-14T09:39:48;3.97;;;1.40;;
30299;SDS011;17110;52.602;12.998;2023-03-14T09:42:15;3.63;;;1.42;;
30299;SDS011;17110;52.602;12.998;2023-03-14T09:44:54;4.28;;;1.70;;
30299;SDS011;17110;52.602;12.998;2023-03-14T09:47:29;2.87;;;1.40;;
30299;SDS011;17110;52.602;12.998;2023-03-14T09:49:55;4.45;;;1.90;;
30299;SDS011;17110;52.602;12.998;2023-03-14T09:52:24;4.30;;;1.30;;
30299;SDS011;17110;52.602;12.998;2023-03-14T09:55:12;5.28;;;1.60;;
30299;SDS011;17110;52.602;12.998;2023-03-14T09:57:42;4.90;;;1.50;;
30299;SDS011;17110;52.602;12.998;2023-03-14T10:00:16;2.92;;;1.30;;
30299;SDS011;17110;52.602;12.998;2023-03-14T10:02:49;3.95;;;1.48;;
30299;SDS011;17110;52.602;12.998;2023-03-14T10:05:24;5.40;;;1.70;;
30299;SDS011;17110;52.602;12.998;2023-03-14T10:07:52;5.40;;;1.42;;
30299;SDS011;17110;52.602;12.998;2023-03-14T10:10:20;4.57;;;1.67;;
30299;SDS011;17110;52.602;12.998;2023-03-14T10:12:48;3.08;;;1.25;;
30299;SDS011;17110;52.602;12.998;2023-03-14T10:15:26;4.93;;;1.45;;
30299;SDS011;17110;52.602;12.998;2023-03-14T10:17:58;3.00;;;1.20;;
30299;SDS011;17110;52.602;12.998;2023-03-14T10:20:35;3.13;;;1.45;;
30299;SDS011;17110;52.602;12.998;2023-03-14T10:25:38;2.67;;;1.13;;
30299;SDS011;17110;52.602;12.998;2023-03-14T10:28:28;4.78;;;1.30;;
30299;SDS011;17110;52.602;12.998;2023-03-14T10:30:57;3.88;;;1.30;;
30299;SDS011;17110;52.602;12.998;2023-03-14T10:33:24;3.72;;;1.30;;
30299;SDS011;17110;52.602;12.998;2023-03-14T10:35:52;3.42;;;1.20;;
30299;SDS011;17110;52.602;12.998;2023-03-14T10:38:39;4.43;;;1.27;;
30299;SDS011;17110;52.602;12.998;2023-03-14T10:41:14;2.60;;;1.23;;
30299;SDS011;17110;52.602;12.998;2023-03-14T10:43:56;2.45;;;1.30;;
30299;SDS011;17110;52.602;12.998;2023-03-14T10:46:23;3.80;;;1.15;;
30299;SDS011;17110;52.602;12.998;2023-03-14T10:48:51;4.05;;;1.20;;
30299;SDS011;17110;52.602;12.998;2023-03-14T10:51:25;3.17;;;1.00;;
30299;SDS011;17110;52.602;12.998;2023-03-14T10:53:56;2.45;;;1.10;;
30299;SDS011;17110;52.602;12.998;2023-03-14T10:56:25;3.42;;;1.20;;
30299;SDS011;17110;52.602;12.998;2023-03-14T10:58:58;3.03;;;1.20;;
30299;SDS011;17110;52.602;12.998;2023-03-14T11:27:31;3.78;;;1.27;;
30299;SDS011;17110;52.602;12.998;2023-03-14T11:30:18;2.10;;;1.20;;
30299;SDS011;17110;52.602;12.998;2023-03-14T11:35:37;3.10;;;1.48;;
30299;SDS011;17110;52.602;12.998;2023-03-14T11:41:52;2.92;;;1.40;;
30299;SDS011;17110;52.602;12.998;2023-03-14T11:44:37;4.70;;;1.27;;
30299;SDS011;17110;52.602;12.998;2023-03-14T11:49:51;3.08;;;1.30;;
30299;SDS011;17110;52.602;12.998;2023-03-14T11:52:30;2.80;;;1.10;;
30299;SDS011;17110;52.602;12.998;2023-03-14T11:55:13;2.20;;;1.10;;
30299;SDS011;17110;52.602;12.998;2023-03-14T11:57:51;3.63;;;1.33;;
30299;SDS011;17110;52.602;12.998;2023-03-14T12:00:22;2.38;;;1.52;;
30299;SDS011;17110;52.602;12.998;2023-03-14T12:11:00;3.70;;;1.35;;
30299;SDS011;17110;52.602;12.998;2023-03-14T12:13:35;1.87;;;1.00;;
30299;SDS011;17110;52.602;12.998;2023-03-14T12:18:49;2.23;;;0.80;;
30299;SDS011;17110;52.602;12.998;2023-03-14T12:21:16;1.40;;;0.98;;
30299;SDS011;17110;52.602;12.998;2023-03-14T12:26:18;3.00;;;1.10;;
30299;SDS011;17110;52.602;12.998;2023-03-14T12:29:09;2.72;;;1.10;;
30299;SDS011;17110;52.602;12.998;2023-03-14T12:31:46;1.93;;;1.20;;
30299;SDS011;17110;52.602;12.998;2023-03-14T12:44:43;2.50;;;1.02;;
30299;SDS011;17110;52.602;12.998;2023-03-14T12:49:46;1.40;;;0.85;;
30299;SDS011;17110;52.602;12.998;2023-03-14T12:52:21;1.48;;;0.70;;
30299;SDS011;17110;52.602;12.998;2023-03-14T12:55:06;2.75;;;0.82;;
30299;SDS011;17110;52.602;12.998;2023-03-14T12:57:51;2.85;;;1.00;;
30299;SDS011;17110;52.602;12.998;2023-03-14T13:00:51;2.25;;;0.80;;
30299;SDS011;17110;52.602;12.998;2023-03-14T13:03:22;2.00;;;1.00;;
30299;SDS011;17110;52.602;12.998;2023-03-14T13:06:01;2.58;;;0.80;;
30299;SDS011;17110;52.602;12.998;2023-03-14T13:09:02;2.42;;;1.20;;
30299;SDS011;17110;52.602;12.998;2023-03-14T13:11:22;2.58;;;1.48;;
30299;SDS011;17110;52.602;12.998;2023-03-14T13:13:56;2.63;;;1.00;;
30299;SDS011;17110;52.602;12.998;2023-03-14T13:16:23;2.42;;;1.02;;
30299;SDS011;17110;52.602;12.998;2023-03-14T13:18:59;1.95;;;0.82;;
30299;SDS011;17110;52.602;12.998;2023-03-14T13:21:34;0.90;;;0.63;;
30299;SDS011;17110;52.602;12.998;2023-03-14T13:24:03;1.77;;;0.90;;
30299;SDS011;17110;52.602;12.998;2023-03-14T13:26:32;1.83;;;0.90;;
30299;SDS011;17110;52.602;12.998;2023-03-14T13:29:27;1.27;;;0.75;;
30299;SDS011;17110;52.602;12.998;2023-03-14T13:31:56;1.95;;;0.90;;
30299;SDS011;17110;52.602;12.998;2023-03-14T13:34:28;1.92;;;0.73;;
30299;SDS011;17110;52.602;12.998;2023-03-14T13:36:55;1.48;;;0.80;;
30299;SDS011;17110;52.602;12.998;2023-03-14T13:39:22;2.25;;;0.75;;
30299;SDS011;17110;52.602;12.998;2023-03-14T13:41:54;0.60;;;0.60;;
30299;SDS011;17110;52.602;12.998;2023-03-14T13:44:39;3.90;;;0.80;;
30299;SDS011;17110;52.602;12.998;2023-03-14T13:47:09;1.20;;;0.70;;
30299;SDS011;17110;52.602;12.998;2023-03-14T13:49:43;1.33;;;0.70;;
30299;SDS011;17110;52.602;12.998;2023-03-14T13:52:22;1.58;;;0.70;;
30299;SDS011;17110;52.602;12.998;2023-03-14T13:58:30;0.55;;;0.55;;
30299;SDS011;17110;52.602;12.998;2023-03-14T14:01:10;0.50;;;0.50;;
30299;SDS011;17110;52.602;12.998;2023-03-14T14:03:41;1.85;;;0.47;;
30299;SDS011;17110;52.602;12.998;2023-03-14T14:09:01;0.47;;;0.40;;
30299;SDS011;17110;52.602;12.998;2023-03-14T14:11:50;2.03;;;0.68;;
30299;SDS011;17110;52.602;12.998;2023-03-14T14:14:22;0.53;;;0.40;;
30299;SDS011;17110;52.602;12.998;2023-03-14T14:16:50;1.98;;;0.60;;
30299;SDS011;17110;52.602;12.998;2023-03-14T14:19:17;1.23;;;0.73;;
30299;SDS011;17110;52.602;12.998;2023-03-14T14:21:48;0.68;;;0.65;;
30299;SDS011;17110;52.602;12.998;2023-03-14T14:24:15;1.15;;;0.60;;
30299;SDS011;17110;52.602;12.998;2023-03-14T14:26:46;0.75;;;0.60;;
30299;SDS011;17110;52.602;12.998;2023-03-14T14:29:24;1.45;;;0.63;;
30299;SDS011;17110;52.602;12.998;2023-03-14T14:32:02;1.50;;;0.70;;
30299;SDS011;17110;52.602;12.998;2023-03-14T14:34:43;0.93;;;0.70;;
30299;SDS011;17110;52.602;12.998;2023-03-14T14:37:18;1.13;;;1.00;;
30299;SDS011;17110;52.602;12.998;2023-03-14T14:39:48;2.28;;;1.20;;
30299;SDS011;17110;52.602;12.998;2023-03-14T14:42:20;1.70;;;0.85;;
30299;SDS011;17110;52.602;12.998;2023-03-14T14:44:50;1.15;;;0.60;;
30299;SDS011;17110;52.602;12.998;2023-03-14T14:47:21;1.15;;;0.82;;
30299;SDS011;17110;52.602;12.998;2023-03-14T14:49:49;3.53;;;1.20;;
30299;SDS011;17110;52.602;12.998;2023-03-14T14:52:18;4.15;;;0.90;;
30299;SDS011;17110;52.602;12.998;2023-03-14T14:54:59;1.25;;;0.80;;
30299;SDS011;17110;52.602;12.998;2023-03-14T14:57:32;1.63;;;1.00;;
30299;SDS011;17110;52.602;12.998;2023-03-14T15:00:04;1.95;;;1.20;;
30299;SDS011;17110;52.602;12.998;2023-03-14T15:02:39;3.47;;;1.20;;
30299;SDS011;17110;52.602;12.998;2023-03-14T15:05:28;2.38;;;1.38;;
30299;SDS011;17110;52.602;12.998;2023-03-14T15:08:01;2.45;;;1.25;;
30299;SDS011;17110;52.602;12.998;2023-03-14T15:10:27;1.02;;;0.93;;
30299;SDS011;17110;52.602;12.998;2023-03-14T15:13:00;1.60;;;0.98;;
30299;SDS011;17110;52.602;12.998;2023-03-14T15:15:27;1.70;;;0.95;;
30299;SDS011;17110;52.602;12.998;2023-03-14T15:17:53;2.55;;;0.80;;
30299;SDS011;17110;52.602;12.998;2023-03-14T15:20:19;1.83;;;0.90;;
30299;SDS011;17110;52.602;12.998;2023-03-14T15:22:48;1.10;;;1.00;;
30299;SDS011;17110;52.602;12.998;2023-03-14T15:25:15;1.00;;;0.80;;
30299;SDS011;17110;52.602;12.998;2023-03-14T15:27:41;1.13;;;0.90;;
30299;SDS011;17110;52.602;12.998;2023-03-14T15:30:10;1.25;;;0.90;;
30299;SDS011;17110;52.602;12.998;2023-03-14T15:32:37;1.02;;;0.88;;
30299;SDS011;17110;52.602;12.998;2023-03-14T15:35:03;1.17;;;0.90;;
30299;SDS011;17110;52.602;12.998;2023-03-14T15:37:29;2.35;;;0.90;;
30299;SDS011;17110;52.602;12.998;2023-03-14T15:39:55;1.83;;;1.00;;
30299;SDS011;17110;52.602;12.998;2023-03-14T15:42:23;2.50;;;0.90;;
30299;SDS011;17110;52.602;12.998;2023-03-14T15:44:49;1.77;;;0.80;;
30299;SDS011;17110;52.602;12.998;2023-03-14T15:47:14;1.53;;;0.93;;
30299;SDS011;17110;52.602;12.998;2023-03-14T15:49:40;1.93;;;0.80;;
30299;SDS011;17110;52.602;12.998;2023-03-14T15:52:07;1.60;;;0.80;;
30299;SDS011;17110;52.602;12.998;2023-03-14T15:54:33;2.55;;;0.80;;
30299;SDS011;17110;52.602;12.998;2023-03-14T15:57:00;3.25;;;1.70;;
30299;SDS011;17110;52.602;12.998;2023-03-14T15:59:25;4.00;;;1.70;;
30299;SDS011;17110;52.602;12.998;2023-03-14T16:01:51;2.10;;;1.00;;
30299;SDS011;17110;52.602;12.998;2023-03-14T16:04:17;2.33;;;1.02;;
30299;SDS011;17110;52.602;12.998;2023-03-14T16:06:44;3.72;;;1.60;;